sensor_id;sensor_type;location;lat;lon;timestamp;pressure;altitude;pressure_sealevel;temperature;humidity
56944;BME280;42848;42.524;12.052;2023-04-19T00:01:49;96594.91;;;9.73;100.00
56944;BME280;42848;42.524;12.052;2023-04-19T00:04:15;96593.47;;;9.66;100.00
56944;BME280;42848;42.524;12.052;2023-04-19T00:06:40;96595.03;;;9.59;100.00
56944;BME280;42848;42.524;12.052;2023-04-19T00:09:07;96583.09;;;9.60;100.00
56944;BME280;42848;42.524;12.052;2023-04-19T00:11:33;96589.13;;;9.48;100.00
56944;BME280;42848;42.524;12.052;2023-04-19T00:13:59;96585.31;;;9.58;100.00
56944;BME280;42848;42.524;12.052;2023-04-19T00:16:25;96579.44;;;9.56;100.00
56944;BME280;42848;42.524;12.052;2023-04-19T00:18:50;96570.84;;;9.71;100.00
56944;BME280;42848;42.524;12.052;2023-04-19T00:21:16;96578.19;;;9.71;100.00
56944;BME280;42848;42.524;12.052;2023-04-19T00:23:42;96576.88;;;9.68;100.00
56944;BME280;42848;42.524;12.052;2023-04-19T00:26:08;96579.59;;;9.77;100.00
56944;BME280;42848;42.524;12.052;2023-04-19T00:28:36;96576.06;;;9.59;100.00
56944;BME280;42848;42.524;12.052;2023-04-19T00:31:01;96583.59;;;9.62;100.00
56944;BME280;42848;42.524;12.052;2023-04-19T00:33:27;96579.44;;;9.56;100.00
56944;BME280;42848;42.524;12.052;2023-04-19T00:35:53;96580.06;;;9.53;100.00
56944;BME280;42848;42.524;12.052;2023-04-19T00:38:19;96580.69;;;9.50;100.00
56944;BME280;42848;42.524;12.052;2023-04-19T00:40:44;96575.09;;;9.46;100.00
56944;BME280;42848;42.524;12.052;2023-04-19T00:43:11;96573.19;;;9.47;100.00
56944;BME280;42848;42.524;12.052;2023-04-19T00:45:37;96581.16;;;9.43;100.00
56944;BME280;42848;42.524;12.052;2023-04-19T00:48:03;96573.38;;;9.59;100.00
56944;BME280;42848;42.524;12.052;2023-04-19T00:50:29;96572.88;;;9.57;100.00
56944;BME280;42848;42.524;12.052;2023-04-19T00:52:55;96567.31;;;9.45;100.00
56944;BME280;42848;42.524;12.052;2023-04-19T00:55:22;96563.16;;;9.56;100.00
56944;BME280;42848;42.524;12.052;2023-04-19T00:57:49;96572.41;;;9.55;100.00
56944;BME280;42848;42.524;12.052;2023-04-19T01:00:16;96568.09;;;9.45;100.00
56944;BME280;42848;42.524;12.052;2023-04-19T01:02:42;96574.97;;;9.77;100.00
56944;BME280;42848;42.524;12.052;2023-04-19T01:05:08;96566.53;;;9.53;100.00
56944;BME280;42848;42.524;12.052;2023-04-19T01:07:34;96569.38;;;9.48;100.00
56944;BME280;42848;42.524;12.052;2023-04-19T01:09:59;96564.44;;;9.50;100.00
56944;BME280;42848;42.524;12.052;2023-04-19T01:12:25;96563.03;;;9.61;100.00
56944;BME280;42848;42.524;12.052;2023-04-19T01:14:51;96572.25;;;9.68;100.00
56944;BME280;42848;42.524;12.052;2023-04-19T01:17:18;96571.00;;;9.66;100.00
56944;BME280;42848;42.524;12.052;2023-04-19T01:19:44;96574.34;;;9.54;100.00
56944;BME280;42848;42.524;12.052;2023-04-19T01:22:20;96575.91;;;9.47;100.00
56944;BME280;42848;42.524;12.052;2023-04-19T01:24:47;96573.66;;;9.49;100.00
56944;BME280;42848;42.524;12.052;2023-04-19T01:27:13;96581.97;;;9.44;100.00
56944;BME280;42848;42.524;12.052;2023-04-19T01:29:39;96574.16;;;9.51;100.00
56944;BME280;42848;42.524;12.052;2023-04-19T01:32:05;96573.38;;;9.59;100.00
56944;BME280;42848;42.524;12.052;2023-04-19T01:34:30;96571.31;;;9.64;100.00
56944;BME280;42848;42.524;12.052;2023-04-19T01:36:56;96571.28;;;9.47;100.00
56944;BME280;42848;42.524;12.052;2023-04-19T01:39:22;96576.25;;;9.54;100.00
56944;BME280;42848;42.524;12.052;2023-04-19T01:41:50;96572.75;;;9.62;100.00
56944;BME280;42848;42.524;12.052;2023-04-19T01:44:16;96567.34;;;9.79;100.00
56944;BME280;42848;42.524;12.052;2023-04-19T01:46:41;96573.88;;;9.87;100.00
56944;BME280;42848;42.524;12.052;2023-04-19T01:49:08;96568.94;;;9.80;100.00
56944;BME280;42848;42.524;12.052;2023-04-19T01:51:34;96569.06;;;9.66;100.00
56944;BME280;42848;42.524;12.052;2023-04-19T01:53:59;96571.28;;;9.47;100.00
56944;BME280;42848;42.524;12.052;2023-04-19T01:56:26;96580.63;;;9.32;100.00
56944;BME280;42848;42.524;12.052;2023-04-19T01:58:52;96570.31;;;9.34;100.00
56944;BME280;42848;42.524;12.052;2023-04-19T02:01:18;96571.44;;;9.33;100.00
56944;BME280;42848;42.524;12.052;2023-04-19T02:03:44;96566.16;;;9.28;100.00
56944;BME280;42848;42.524;12.052;2023-04-19T02:06:11;96562.34;;;9.38;100.00
56944;BME280;42848;42.524;12.052;2023-04-19T02:08:38;96562.34;;;9.47;100.00
56944;BME280;42848;42.524;12.052;2023-04-19T02:11:08;96562.47;;;9.24;100.00
56944;BME280;42848;42.524;12.052;2023-04-19T02:13:34;96562.31;;;9.29;100.00
56944;BME280;42848;42.524;12.052;2023-04-19T02:16:00;96560.38;;;9.21;100.00
56944;BME280;42848;42.524;12.052;2023-04-19T02:18:28;96561.78;;;9.10;100.00
56944;BME280;42848;42.524;12.052;2023-04-19T02:21:04;96559.78;;;9.24;100.00
56944;BME280;42848;42.524;12.052;2023-04-19T02:23:30;96559.59;;;9.21;100.00
56944;BME280;42848;42.524;12.052;2023-04-19T02:25:56;96559.91;;;9.19;100.00
56944;BME280;42848;42.524;12.052;2023-04-19T02:28:22;96558.16;;;9.15;100.00
56944;BME280;42848;42.524;12.052;2023-04-19T02:30:48;96554.66;;;9.23;100.00
56944;BME280;42848;42.524;12.052;2023-04-19T02:33:14;96550.53;;;9.25;100.00
56944;BME280;42848;42.524;12.052;2023-04-19T02:35:40;96558.66;;;9.25;100.00
56944;BME280;42848;42.524;12.052;2023-04-19T02:38:06;96549.22;;;9.23;100.00
56944;BME280;42848;42.524;12.052;2023-04-19T02:40:32;96548.47;;;9.39;100.00
56944;BME280;42848;42.524;12.052;2023-04-19T02:42:58;96551.31;;;9.17;100.00
56944;BME280;42848;42.524;12.052;2023-04-19T02:45:23;96547.81;;;9.25;100.00
56944;BME280;42848;42.524;12.052;2023-04-19T02:47:49;96553.53;;;9.15;100.00
56944;BME280;42848;42.524;12.052;2023-04-19T02:50:15;96539.84;;;9.20;100.00
56944;BME280;42848;42.524;12.052;2023-04-19T02:52:41;96542.72;;;9.15;100.00
56944;BME280;42848;42.524;12.052;2023-04-19T02:55:07;96550.03;;;9.23;100.00
56944;BME280;42848;42.524;12.052;2023-04-19T02:57:33;96551.78;;;9.19;100.00
56944;BME280;42848;42.524;12.052;2023-04-19T02:59:59;96547.97;;;9.29;100.00
56944;BME280;42848;42.524;12.052;2023-04-19T03:02:25;96547.47;;;9.18;100.00
56944;BME280;42848;42.524;12.052;2023-04-19T03:04:50;96547.16;;;9.20;100.00
56944;BME280;42848;42.524;12.052;2023-04-19T03:07:17;96544.63;;;9.15;100.00
56944;BME280;42848;42.524;12.052;2023-04-19T03:09:43;96549.72;;;9.16;100.00
56944;BME280;42848;42.524;12.052;2023-04-19T03:12:09;96552.75;;;9.15;100.00
56944;BME280;42848;42.524;12.052;2023-04-19T03:14:35;96550.03;;;9.23;100.00
56944;BME280;42848;42.524;12.052;2023-04-19T03:17:01;96547.47;;;9.18;100.00
56944;BME280;42848;42.524;12.052;2023-04-19T03:19:27;96559.72;;;9.07;100.00
56944;BME280;42848;42.524;12.052;2023-04-19T03:21:53;96558.59;;;9.08;100.00
56944;BME280;42848;42.524;12.052;2023-04-19T03:24:19;96557.97;;;9.11;100.00
56944;BME280;42848;42.524;12.052;2023-04-19T03:26:45;96558.72;;;9.03;100.00
56944;BME280;42848;42.524;12.052;2023-04-19T03:29:12;96553.66;;;9.10;100.00
56944;BME280;42848;42.524;12.052;2023-04-19T03:31:38;96555.22;;;9.02;100.00
56944;BME280;42848;42.524;12.052;2023-04-19T03:34:04;96560.00;;;8.97;100.00
56944;BME280;42848;42.524;12.052;2023-04-19T03:36:29;96557.31;;;8.97;100.00
56944;BME280;42848;42.524;12.052;2023-04-19T03:38:55;96559.22;;;8.96;100.00
56944;BME280;42848;42.524;12.052;2023-04-19T03:41:23;96563.69;;;9.01;100.00
56944;BME280;42848;42.524;12.052;2023-04-19T03:43:49;96567.78;;;8.90;100.00
56944;BME280;42848;42.524;12.052;2023-04-19T03:46:15;96557.31;;;8.97;100.00
56944;BME280;42848;42.524;12.052;2023-04-19T03:48:40;96564.31;;;8.98;100.00
56944;BME280;42848;42.524;12.052;2023-04-19T03:51:06;96561.88;;;8.88;100.00
56944;BME280;42848;42.524;12.052;2023-04-19T03:53:32;96563.50;;;8.97;100.00
56944;BME280;42848;42.524;12.052;2023-04-19T03:55:57;96557.09;;;8.93;100.00
56944;BME280;42848;42.524;12.052;2023-04-19T03:58:23;96556.03;;;9.03;100.00
56944;BME280;42848;42.524;12.052;2023-04-19T04:00:49;96565.69;;;8.87;100.00
56944;BME280;42848;42.524;12.052;2023-04-19T04:03:16;96559.31;;;8.82;100.00
56944;BME280;42848;42.524;12.052;2023-04-19T04:05:42;96561.09;;;8.87;100.00
56944;BME280;42848;42.524;12.052;2023-04-19T04:08:08;96559.19;;;8.88;100.00
56944;BME280;42848;42.524;12.052;2023-04-19T04:10:33;96558.50;;;8.82;100.00
56944;BME280;42848;42.524;12.052;2023-04-19T04:12:59;96561.53;;;8.80;100.00
56944;BME280;42848;42.524;12.052;2023-04-19T04:15:25;96562.66;;;8.79;100.00
56944;BME280;42848;42.524;12.052;2023-04-19T04:17:50;96560.06;;;8.74;100.00
56944;BME280;42848;42.524;12.052;2023-04-19T04:20:16;96561.38;;;8.86;100.00
56944;BME280;42848;42.524;12.052;2023-04-19T04:22:42;96562.25;;;9.03;100.00
56944;BME280;42848;42.524;12.052;2023-04-19T04:25:10;96570.59;;;8.84;100.00
56944;BME280;42848;42.524;12.052;2023-04-19T04:27:37;96572.34;;;8.80;100.00
56944;BME280;42848;42.524;12.052;2023-04-19T04:30:07;96569.00;;;8.83;100.00
56944;BME280;42848;42.524;12.052;2023-04-19T04:32:33;96563.97;;;8.91;100.00
56944;BME280;42848;42.524;12.052;2023-04-19T04:35:03;96572.75;;;8.96;100.00
56944;BME280;42848;42.524;12.052;2023-04-19T04:37:33;96567.50;;;9.00;100.00
56944;BME280;42848;42.524;12.052;2023-04-19T04:40:00;96573.53;;;8.97;100.00
56944;BME280;42848;42.524;12.052;2023-04-19T04:42:26;96565.72;;;8.95;100.00
56944;BME280;42848;42.524;12.052;2023-04-19T04:44:52;96562.59;;;9.10;100.00
56944;BME280;42848;42.524;12.052;2023-04-19T04:47:19;96565.28;;;9.10;100.00
56944;BME280;42848;42.524;12.052;2023-04-19T04:49:45;96569.53;;;8.94;100.00
56944;BME280;42848;42.524;12.052;2023-04-19T04:52:11;96578.78;;;8.93;100.00
56944;BME280;42848;42.524;12.052;2023-04-19T04:54:37;96572.31;;;9.11;100.00
56944;BME280;42848;42.524;12.052;2023-04-19T04:57:02;96581.88;;;9.09;100.00
56944;BME280;42848;42.524;12.052;2023-04-19T04:59:28;96576.94;;;9.20;100.00
56944;BME280;42848;42.524;12.052;2023-04-19T05:01:54;96574.69;;;9.13;100.00
56944;BME280;42848;42.524;12.052;2023-04-19T05:04:19;96582.00;;;9.04;100.00
56944;BME280;42848;42.524;12.052;2023-04-19T05:06:45;96586.28;;;9.05;100.00
56944;BME280;42848;42.524;12.052;2023-04-19T05:09:11;96578.72;;;9.24;100.00
56944;BME280;42848;42.524;12.052;2023-04-19T05:11:37;96587.94;;;9.23;100.00
56944;BME280;42848;42.524;12.052;2023-04-19T05:14:02;96591.31;;;9.29;100.00
56944;BME280;42848;42.524;12.052;2023-04-19T05:16:28;96591.47;;;9.32;100.00
56944;BME280;42848;42.524;12.052;2023-04-19T05:18:54;96600.72;;;9.31;100.00
56944;BME280;42848;42.524;12.052;2023-04-19T05:21:21;96594.06;;;9.37;100.00
56944;BME280;42848;42.524;12.052;2023-04-19T05:23:46;96592.31;;;9.33;100.00
56944;BME280;42848;42.524;12.052;2023-04-19T05:26:14;96597.91;;;9.54;100.00
56944;BME280;42848;42.524;12.052;2023-04-19T05:28:42;96595.03;;;9.50;100.00
56944;BME280;42848;42.524;12.052;2023-04-19T05:31:08;96604.28;;;9.49;100.00
56944;BME280;42848;42.524;12.052;2023-04-19T05:33:33;96594.09;;;9.55;100.00
56944;BME280;42848;42.524;12.052;2023-04-19T05:35:59;96602.53;;;9.53;100.00
56944;BME280;42848;42.524;12.052;2023-04-19T05:38:25;96598.88;;;9.58;100.00
56944;BME280;42848;42.524;12.052;2023-04-19T05:40:50;96594.25;;;9.58;100.00
56944;BME280;42848;42.524;12.052;2023-04-19T05:43:16;96595.69;;;9.64;100.00
56944;BME280;42848;42.524;12.052;2023-04-19T05:45:42;96587.91;;;9.63;100.00
56944;BME280;42848;42.524;12.052;2023-04-19T05:48:07;96585.53;;;9.70;100.00
56944;BME280;42848;42.524;12.052;2023-04-19T05:50:34;96593.47;;;9.75;100.00
56944;BME280;42848;42.524;12.052;2023-04-19T05:53:03;96591.25;;;9.77;100.00
56944;BME280;42848;42.524;12.052;2023-04-19T05:55:29;96602.28;;;9.81;100.00
56944;BME280;42848;42.524;12.052;2023-04-19T05:57:55;96586.16;;;9.84;100.00
56944;BME280;42848;42.524;12.052;2023-04-19T06:00:21;96600.03;;;9.91;100.00
56944;BME280;42848;42.524;12.052;2023-04-19T06:02:46;96588.88;;;9.93;100.00
56944;BME280;42848;42.524;12.052;2023-04-19T06:05:12;96597.97;;;9.88;100.00
56944;BME280;42848;42.524;12.052;2023-04-19T06:07:38;96586.47;;;9.91;100.00
56944;BME280;42848;42.524;12.052;2023-04-19T06:10:04;96600.50;;;9.93;100.00
56944;BME280;42848;42.524;12.052;2023-04-19T06:12:30;96596.53;;;10.00;100.00
56944;BME280;42848;42.524;12.052;2023-04-19T06:14:56;96597.34;;;10.09;100.00
56944;BME280;42848;42.524;12.052;2023-04-19T06:17:21;96596.88;;;10.07;100.00
56944;BME280;42848;42.524;12.052;2023-04-19T06:19:49;96595.56;;;10.21;100.00
56944;BME280;42848;42.524;12.052;2023-04-19T06:22:15;96598.59;;;10.20;100.00
56944;BME280;42848;42.524;12.052;2023-04-19T06:24:40;96599.09;;;10.31;100.00
56944;BME280;42848;42.524;12.052;2023-04-19T06:27:06;96594.13;;;10.33;100.00
56944;BME280;42848;42.524;12.052;2023-04-19T06:29:32;96603.25;;;10.37;100.00
56944;BME280;42848;42.524;12.052;2023-04-19T06:31:57;96595.72;;;10.51;100.00
56944;BME280;42848;42.524;12.052;2023-04-19T06:34:23;96592.97;;;10.60;100.00
56944;BME280;42848;42.524;12.052;2023-04-19T06:36:49;96592.69;;;10.61;100.00
56944;BME280;42848;42.524;12.052;2023-04-19T06:39:14;96593.75;;;10.69;100.00
56944;BME280;42848;42.524;12.052;2023-04-19T06:41:40;96600.28;;;10.76;100.00
56944;BME280;42848;42.524;12.052;2023-04-19T06:44:05;96607.13;;;10.91;100.00
56944;BME280;42848;42.524;12.052;2023-04-19T06:46:31;96601.53;;;10.88;100.00
56944;BME280;42848;42.524;12.052;2023-04-19T06:48:57;96604.91;;;10.85;100.00
56944;BME280;42848;42.524;12.052;2023-04-19T06:51:22;96596.56;;;10.98;100.00
56944;BME280;42848;42.524;12.052;2023-04-19T06:53:49;96603.28;;;10.92;100.00
56944;BME280;42848;42.524;12.052;2023-04-19T06:56:15;96610.91;;;11.07;100.00
56944;BME280;42848;42.524;12.052;2023-04-19T06:58:41;96602.00;;;10.98;100.00
56944;BME280;42848;42.524;12.052;2023-04-19T07:01:06;96612.81;;;11.07;100.00
56944;BME280;42848;42.524;12.052;2023-04-19T07:03:32;96612.59;;;11.21;100.00
56944;BME280;42848;42.524;12.052;2023-04-19T07:05:58;96608.75;;;11.22;100.00
56944;BME280;42848;42.524;12.052;2023-04-19T07:08:24;96607.13;;;11.29;100.00
56944;BME280;42848;42.524;12.052;2023-04-19T07:10:50;96608.75;;;11.51;100.00
56944;BME280;42848;42.524;12.052;2023-04-19T07:13:15;96599.72;;;11.38;100.00
56944;BME280;42848;42.524;12.052;2023-04-19T07:15:41;96604.66;;;11.45;100.00
56944;BME280;42848;42.524;12.052;2023-04-19T07:18:07;96607.16;;;11.50;100.00
56944;BME280;42848;42.524;12.052;2023-04-19T07:20:34;96612.81;;;11.45;100.00
56944;BME280;42848;42.524;12.052;2023-04-19T07:23:00;96612.72;;;11.62;100.00
56944;BME280;42848;42.524;12.052;2023-04-19T07:25:26;96618.53;;;11.52;100.00
56944;BME280;42848;42.524;12.052;2023-04-19T07:27:52;96605.03;;;11.64;100.00
56944;BME280;42848;42.524;12.052;2023-04-19T07:30:19;96605.50;;;11.66;100.00
56944;BME280;42848;42.524;12.052;2023-04-19T07:32:45;96613.72;;;11.79;100.00
56944;BME280;42848;42.524;12.052;2023-04-19T07:35:11;96611.53;;;11.81;100.00
56944;BME280;42848;42.524;12.052;2023-04-19T07:37:36;96605.88;;;11.86;100.00
56944;BME280;42848;42.524;12.052;2023-04-19T07:40:03;96604.75;;;11.87;100.00
56944;BME280;42848;42.524;12.052;2023-04-19T07:42:29;96610.38;;;11.82;100.00
56944;BME280;42848;42.524;12.052;2023-04-19T07:44:55;96608.19;;;11.96;100.00
56944;BME280;42848;42.524;12.052;2023-04-19T07:47:21;96607.78;;;11.85;100.00
56944;BME280;42848;42.524;12.052;2023-04-19T07:49:51;96601.44;;;12.02;100.00
56944;BME280;42848;42.524;12.052;2023-04-19T07:52:16;96603.97;;;12.07;100.00
56944;BME280;42848;42.524;12.052;2023-04-19T07:54:42;96603.47;;;12.05;100.00
56944;BME280;42848;42.524;12.052;2023-04-19T07:57:08;96610.31;;;12.11;100.00
56944;BME280;42848;42.524;12.052;2023-04-19T07:59:34;96601.50;;;12.14;100.00
56944;BME280;42848;42.524;12.052;2023-04-19T08:02:00;96607.16;;;12.09;100.00
56944;BME280;42848;42.524;12.052;2023-04-19T08:04:25;96601.03;;;12.12;100.00
56944;BME280;42848;42.524;12.052;2023-04-19T08:06:51;96605.16;;;12.18;100.00
56944;BME280;42848;42.524;12.052;2023-04-19T08:09:17;96597.03;;;12.31;100.00
56944;BME280;42848;42.524;12.052;2023-04-19T08:11:43;96598.84;;;12.27;100.00
56944;BME280;42848;42.524;12.052;2023-04-19T08:14:09;96594.25;;;12.39;100.00
56944;BME280;42848;42.524;12.052;2023-04-19T08:16:35;96590.00;;;12.30;100.00
56944;BME280;42848;42.524;12.052;2023-04-19T08:19:00;96602.78;;;12.50;100.00
56944;BME280;42848;42.524;12.052;2023-04-19T08:21:26;96596.09;;;12.47;100.00
56944;BME280;42848;42.524;12.052;2023-04-19T08:23:52;96598.34;;;12.45;100.00
56944;BME280;42848;42.524;12.052;2023-04-19T08:26:18;96593.44;;;12.39;100.00
56944;BME280;42848;42.524;12.052;2023-04-19T08:28:43;96598.81;;;12.47;100.00
56944;BME280;42848;42.524;12.052;2023-04-19T08:31:09;96602.88;;;12.74;100.00
56944;BME280;42848;42.524;12.052;2023-04-19T08:33:35;96595.56;;;12.66;100.00
56944;BME280;42848;42.524;12.052;2023-04-19T08:36:01;96599.88;;;12.67;100.00
56944;BME280;42848;42.524;12.052;2023-04-19T08:38:26;96594.53;;;12.59;100.00
56944;BME280;42848;42.524;12.052;2023-04-19T08:40:53;96595.06;;;12.85;100.00
56944;BME280;42848;42.524;12.052;2023-04-19T08:43:24;96601.56;;;13.05;100.00
56944;BME280;42848;42.524;12.052;2023-04-19T08:45:50;96594.19;;;13.05;100.00
56944;BME280;42848;42.524;12.052;2023-04-19T08:48:17;96595.09;;;13.09;100.00
56944;BME280;42848;42.524;12.052;2023-04-19T08:50:43;96596.44;;;13.03;100.00
56944;BME280;42848;42.524;12.052;2023-04-19T08:53:13;96593.41;;;13.17;100.00
56944;BME280;42848;42.524;12.052;2023-04-19T08:55:41;96594.34;;;13.33;100.00
56944;BME280;42848;42.524;12.052;2023-04-19T08:58:08;96588.00;;;13.29;100.00
56944;BME280;42848;42.524;12.052;2023-04-19T09:00:37;96586.63;;;13.48;100.00
56944;BME280;42848;42.524;12.052;2023-04-19T09:03:06;96583.56;;;13.49;100.00
56944;BME280;42848;42.524;12.052;2023-04-19T09:05:32;96583.91;;;13.23;100.00
56944;BME280;42848;42.524;12.052;2023-04-19T09:08:34;96585.38;;;13.21;100.00
56944;BME280;42848;42.524;12.052;2023-04-19T09:11:00;96576.41;;;13.20;100.00
56944;BME280;42848;42.524;12.052;2023-04-19T09:13:28;96589.78;;;13.25;100.00
56944;BME280;42848;42.524;12.052;2023-04-19T09:15:54;96575.94;;;13.43;100.00
56944;BME280;42848;42.524;12.052;2023-04-19T09:18:29;96582.19;;;13.43;100.00
56944;BME280;42848;42.524;12.052;2023-04-19T09:20:55;96573.41;;;13.62;100.00
56944;BME280;42848;42.524;12.052;2023-04-19T09:23:26;96569.09;;;13.73;100.00
56944;BME280;42848;42.524;12.052;2023-04-19T09:25:57;96575.69;;;13.60;100.00
56944;BME280;42848;42.524;12.052;2023-04-19T09:28:29;96572.38;;;13.79;100.00
56944;BME280;42848;42.524;12.052;2023-04-19T09:30:55;96569.34;;;13.56;100.00
56944;BME280;42848;42.524;12.052;2023-04-19T09:35:58;96570.69;;;13.74;100.00
56944;BME280;42848;42.524;12.052;2023-04-19T09:38:24;96570.88;;;13.93;100.00
56944;BME280;42848;42.524;12.052;2023-04-19T09:40:49;96576.56;;;14.01;100.00
56944;BME280;42848;42.524;12.052;2023-04-19T09:43:24;96576.72;;;14.20;100.00
56944;BME280;42848;42.524;12.052;2023-04-19T09:45:50;96567.59;;;14.28;100.00
56944;BME280;42848;42.524;12.052;2023-04-19T09:48:16;96569.56;;;14.43;100.00
56944;BME280;42848;42.524;12.052;2023-04-19T09:50:59;96567.81;;;14.23;100.00
56944;BME280;42848;42.524;12.052;2023-04-19T09:53:27;96564.22;;;14.19;100.00
56944;BME280;42848;42.524;12.052;2023-04-19T09:55:53;96559.84;;;14.30;100.00
56944;BME280;42848;42.524;12.052;2023-04-19T09:58:20;96558.13;;;14.26;100.00
56944;BME280;42848;42.524;12.052;2023-04-19T10:00:47;96561.84;;;14.17;100.00
56944;BME280;42848;42.524;12.052;2023-04-19T10:03:14;96557.16;;;14.18;100.00
56944;BME280;42848;42.524;12.052;2023-04-19T10:05:41;96558.41;;;14.48;100.00
56944;BME280;42848;42.524;12.052;2023-04-19T10:08:08;96557.56;;;14.60;100.00
56944;BME280;42848;42.524;12.052;2023-04-19T10:10:35;96556.06;;;14.63;100.00
56944;BME280;42848;42.524;12.052;2023-04-19T10:13:07;96553.78;;;14.65;100.00
56944;BME280;42848;42.524;12.052;2023-04-19T10:15:35;96560.13;;;14.69;100.00
56944;BME280;42848;42.524;12.052;2023-04-19T10:18:02;96555.22;;;14.74;100.00
56944;BME280;42848;42.524;12.052;2023-04-19T10:20:41;96554.59;;;14.97;100.00
56944;BME280;42848;42.524;12.052;2023-04-19T10:23:11;96548.16;;;14.89;100.00
56944;BME280;42848;42.524;12.052;2023-04-19T10:25:37;96554.19;;;15.11;100.00
56944;BME280;42848;42.524;12.052;2023-04-19T10:28:03;96550.28;;;15.12;100.00
56944;BME280;42848;42.524;12.052;2023-04-19T10:30:29;96546.31;;;15.25;100.00
56944;BME280;42848;42.524;12.052;2023-04-19T10:32:59;96550.91;;;15.21;100.00
56944;BME280;42848;42.524;12.052;2023-04-19T10:35:28;96545.50;;;15.08;100.00
56944;BME280;42848;42.524;12.052;2023-04-19T10:38:11;96544.47;;;15.29;100.00
56944;BME280;42848;42.524;12.052;2023-04-19T10:40:59;96536.22;;;15.60;100.00
56944;BME280;42848;42.524;12.052;2023-04-19T10:43:27;96536.16;;;15.41;100.00
56944;BME280;42848;42.524;12.052;2023-04-19T10:45:57;96536.31;;;15.64;100.00
56944;BME280;42848;42.524;12.052;2023-04-19T10:51:17;96533.25;;;15.85;100.00
56944;BME280;42848;42.524;12.052;2023-04-19T10:53:51;96536.41;;;15.87;100.00
56944;BME280;42848;42.524;12.052;2023-04-19T11:01:46;96527.00;;;16.04;97.72
56944;BME280;42848;42.524;12.052;2023-04-19T11:04:16;96518.41;;;15.86;91.02
56944;BME280;42848;42.524;12.052;2023-04-19T11:09:24;96511.78;;;15.87;93.97
56944;BME280;42848;42.524;12.052;2023-04-19T11:11:51;96517.69;;;15.89;89.20
56944;BME280;42848;42.524;12.052;2023-04-19T11:14:19;96511.03;;;15.71;88.90
56944;BME280;42848;42.524;12.052;2023-04-19T11:16:46;96508.31;;;15.71;91.78
56944;BME280;42848;42.524;12.052;2023-04-19T11:19:15;96497.44;;;15.74;91.10
56944;BME280;42848;42.524;12.052;2023-04-19T11:21:41;96497.66;;;16.04;87.72
56944;BME280;42848;42.524;12.052;2023-04-19T11:24:08;96490.03;;;16.13;83.11
56944;BME280;42848;42.524;12.052;2023-04-19T11:26:34;96498.75;;;16.00;83.72
56944;BME280;42848;42.524;12.052;2023-04-19T11:29:00;96489.75;;;16.18;86.37
56944;BME280;42848;42.524;12.052;2023-04-19T11:31:26;96489.91;;;16.48;92.22
56944;BME280;42848;42.524;12.052;2023-04-19T11:33:52;96497.78;;;16.50;89.18
56944;BME280;42848;42.524;12.052;2023-04-19T11:36:18;96493.88;;;16.51;87.84
56944;BME280;42848;42.524;12.052;2023-04-19T11:38:47;96489.13;;;16.48;84.02
56944;BME280;42848;42.524;12.052;2023-04-19T11:41:14;96479.72;;;16.68;81.92
56944;BME280;42848;42.524;12.052;2023-04-19T11:43:40;96486.22;;;17.06;86.83
56944;BME280;42848;42.524;12.052;2023-04-19T11:46:06;96484.00;;;17.15;77.10
56944;BME280;42848;42.524;12.052;2023-04-19T11:48:33;96479.97;;;16.83;77.07
56944;BME280;42848;42.524;12.052;2023-04-19T11:50:59;96478.66;;;16.99;86.01
56944;BME280;42848;42.524;12.052;2023-04-19T11:53:26;96485.53;;;16.67;84.71
56944;BME280;42848;42.524;12.052;2023-04-19T11:55:54;96481.16;;;16.62;100.00
56944;BME280;42848;42.524;12.052;2023-04-19T11:58:41;96487.50;;;16.66;100.00
56944;BME280;42848;42.524;12.052;2023-04-19T12:01:18;96485.78;;;16.58;100.00
56944;BME280;42848;42.524;12.052;2023-04-19T12:03:51;96477.84;;;16.53;100.00
56944;BME280;42848;42.524;12.052;2023-04-19T12:06:27;96473.59;;;16.56;100.00
56944;BME280;42848;42.524;12.052;2023-04-19T12:08:55;96475.88;;;16.31;100.00
56944;BME280;42848;42.524;12.052;2023-04-19T12:11:58;96467.88;;;16.41;100.00
56944;BME280;42848;42.524;12.052;2023-04-19T12:14:19;96474.41;;;16.56;100.00
56944;BME280;42848;42.524;12.052;2023-04-19T12:17:09;96467.75;;;16.57;100.00
56944;BME280;42848;42.524;12.052;2023-04-19T12:19:43;96461.63;;;16.87;100.00
56944;BME280;42848;42.524;12.052;2023-04-19T12:22:18;96468.75;;;16.68;100.00
56944;BME280;42848;42.524;12.052;2023-04-19T12:24:53;96461.72;;;16.48;100.00
56944;BME280;42848;42.524;12.052;2023-04-19T12:27:20;96458.94;;;16.67;100.00
56944;BME280;42848;42.524;12.052;2023-04-19T12:29:45;96465.19;;;17.14;100.00
56944;BME280;42848;42.524;12.052;2023-04-19T12:32:11;96454.50;;;16.82;100.00
56944;BME280;42848;42.524;12.052;2023-04-19T12:34:37;96457.88;;;16.53;100.00
56944;BME280;42848;42.524;12.052;2023-04-19T12:37:03;96446.50;;;16.28;100.00
56944;BME280;42848;42.524;12.052;2023-04-19T12:39:29;96445.47;;;16.16;100.00
56944;BME280;42848;42.524;12.052;2023-04-19T12:41:55;96445.72;;;16.50;100.00
56944;BME280;42848;42.524;12.052;2023-04-19T12:44:21;96438.63;;;16.68;100.00
56944;BME280;42848;42.524;12.052;2023-04-19T12:46:47;96439.94;;;16.55;100.00
56944;BME280;42848;42.524;12.052;2023-04-19T12:49:16;96439.31;;;16.42;100.00
56944;BME280;42848;42.524;12.052;2023-04-19T12:51:42;96447.28;;;16.28;100.00
56944;BME280;42848;42.524;12.052;2023-04-19T12:54:07;96441.00;;;16.28;100.00
56944;BME280;42848;42.524;12.052;2023-04-19T12:56:33;96430.63;;;16.37;100.00
56944;BME280;42848;42.524;12.052;2023-04-19T12:58:59;96434.47;;;16.55;100.00